sensor_id;sensor_type;location;lat;lon;timestamp;P1;durP1;ratioP1;P2;durP2;ratioP2
61015;SDS011;46902;52.920;6.536;2023-04-28T00:01:22;11.50;;;7.75;;
61015;SDS011;46902;52.920;6.536;2023-04-28T00:03:48;12.18;;;7.32;;
61015;SDS011;46902;52.920;6.536;2023-04-28T00:06:13;10.95;;;7.80;;
61015;SDS011;46902;52.920;6.536;2023-04-28T00:08:39;10.25;;;7.55;;
61015;SDS011;46902;52.920;6.536;2023-04-28T00:11:11;11.68;;;7.32;;
61015;SDS011;46902;52.920;6.536;2023-04-28T00:13:37;11.65;;;8.00;;
61015;SDS011;46902;52.920;6.536;2023-04-28T00:16:03;14.45;;;7.50;;
61015;SDS011;46902;52.920;6.536;2023-04-28T00:18:29;9.35;;;6.82;;
61015;SDS011;46902;52.920;6.536;2023-04-28T00:20:55;9.38;;;7.47;;
61015;SDS011;46902;52.920;6.536;2023-04-28T00:23:20;10.63;;;7.13;;
61015;SDS011;46902;52.920;6.536;2023-04-28T00:25:53;11.13;;;7.43;;
61015;SDS011;46902;52.920;6.536;2023-04-28T00:28:19;9.65;;;7.57;;
61015;SDS011;46902;52.920;6.536;2023-04-28T00:30:45;9.70;;;6.95;;
61015;SDS011;46902;52.920;6.536;2023-04-28T00:33:11;12.45;;;7.55;;
61015;SDS011;46902;52.920;6.536;2023-04-28T00:35:37;11.98;;;7.60;;
61015;SDS011;46902;52.920;6.536;2023-04-28T00:38:04;11.40;;;7.13;;
61015;SDS011;46902;52.920;6.536;2023-04-28T00:40:33;11.63;;;7.35;;
61015;SDS011;46902;52.920;6.536;2023-04-28T00:43:00;11.10;;;7.47;;
61015;SDS011;46902;52.920;6.536;2023-04-28T00:45:26;12.90;;;8.00;;
61015;SDS011;46902;52.920;6.536;2023-04-28T00:47:52;11.27;;;7.85;;
61015;SDS011;46902;52.920;6.536;2023-04-28T00:50:19;10.80;;;7.43;;
61015;SDS011;46902;52.920;6.536;2023-04-28T00:52:46;12.05;;;7.78;;
61015;SDS011;46902;52.920;6.536;2023-04-28T00:55:11;12.38;;;7.57;;
61015;SDS011;46902;52.920;6.536;2023-04-28T00:57:40;9.50;;;7.20;;
61015;SDS011;46902;52.920;6.536;2023-04-28T01:00:06;10.85;;;7.95;;
61015;SDS011;46902;52.920;6.536;2023-04-28T01:02:33;11.98;;;7.22;;
61015;SDS011;46902;52.920;6.536;2023-04-28T01:05:00;11.98;;;7.47;;
61015;SDS011;46902;52.920;6.536;2023-04-28T01:07:26;10.85;;;7.03;;
61015;SDS011;46902;52.920;6.536;2023-04-28T01:09:52;11.93;;;7.35;;
61015;SDS011;46902;52.920;6.536;2023-04-28T01:12:18;12.40;;;7.72;;
61015;SDS011;46902;52.920;6.536;2023-04-28T01:14:44;11.50;;;6.82;;
61015;SDS011;46902;52.920;6.536;2023-04-28T01:17:10;12.00;;;7.65;;
61015;SDS011;46902;52.920;6.536;2023-04-28T01:19:36;9.70;;;7.35;;
61015;SDS011;46902;52.920;6.536;2023-04-28T01:22:01;13.63;;;8.07;;
61015;SDS011;46902;52.920;6.536;2023-04-28T01:24:28;13.82;;;8.35;;
61015;SDS011;46902;52.920;6.536;2023-04-28T01:26:54;12.27;;;8.15;;
61015;SDS011;46902;52.920;6.536;2023-04-28T01:29:20;11.75;;;7.93;;
61015;SDS011;46902;52.920;6.536;2023-04-28T01:31:45;12.38;;;7.93;;
61015;SDS011;46902;52.920;6.536;2023-04-28T01:34:11;13.57;;;8.50;;
61015;SDS011;46902;52.920;6.536;2023-04-28T01:36:37;12.68;;;7.45;;
61015;SDS011;46902;52.920;6.536;2023-04-28T01:39:03;11.40;;;7.95;;
61015;SDS011;46902;52.920;6.536;2023-04-28T01:41:28;9.70;;;7.60;;
61015;SDS011;46902;52.920;6.536;2023-04-28T01:43:54;13.63;;;8.38;;
61015;SDS011;46902;52.920;6.536;2023-04-28T01:46:20;12.77;;;8.73;;
61015;SDS011;46902;52.920;6.536;2023-04-28T01:48:45;11.48;;;8.70;;
61015;SDS011;46902;52.920;6.536;2023-04-28T01:51:11;10.25;;;8.05;;
61015;SDS011;46902;52.920;6.536;2023-04-28T01:53:37;13.30;;;9.15;;
61015;SDS011;46902;52.920;6.536;2023-04-28T01:56:03;11.75;;;8.50;;
61015;SDS011;46902;52.920;6.536;2023-04-28T01:58:29;11.52;;;8.45;;
61015;SDS011;46902;52.920;6.536;2023-04-28T02:00:54;14.55;;;9.43;;
61015;SDS011;46902;52.920;6.536;2023-04-28T02:03:20;18.58;;;9.73;;
61015;SDS011;46902;52.920;6.536;2023-04-28T02:05:45;13.68;;;9.40;;
61015;SDS011;46902;52.920;6.536;2023-04-28T02:08:11;12.65;;;9.10;;
61015;SDS011;46902;52.920;6.536;2023-04-28T02:10:37;13.65;;;9.32;;
61015;SDS011;46902;52.920;6.536;2023-04-28T02:13:02;13.82;;;9.18;;
61015;SDS011;46902;52.920;6.536;2023-04-28T02:15:28;15.55;;;9.95;;
61015;SDS011;46902;52.920;6.536;2023-04-28T02:17:54;16.30;;;10.57;;
61015;SDS011;46902;52.920;6.536;2023-04-28T02:20:20;12.60;;;10.25;;
61015;SDS011;46902;52.920;6.536;2023-04-28T02:22:45;12.40;;;10.10;;
61015;SDS011;46902;52.920;6.536;2023-04-28T02:25:12;16.35;;;10.27;;
61015;SDS011;46902;52.920;6.536;2023-04-28T02:27:37;16.83;;;10.25;;
61015;SDS011;46902;52.920;6.536;2023-04-28T02:30:03;16.52;;;11.25;;
61015;SDS011;46902;52.920;6.536;2023-04-28T02:32:30;13.73;;;10.27;;
61015;SDS011;46902;52.920;6.536;2023-04-28T02:34:56;13.80;;;10.30;;
61015;SDS011;46902;52.920;6.536;2023-04-28T02:37:22;13.07;;;10.27;;
61015;SDS011;46902;52.920;6.536;2023-04-28T02:39:47;16.20;;;10.75;;
61015;SDS011;46902;52.920;6.536;2023-04-28T02:42:13;13.43;;;9.98;;
61015;SDS011;46902;52.920;6.536;2023-04-28T02:44:39;16.08;;;10.30;;
61015;SDS011;46902;52.920;6.536;2023-04-28T02:47:04;14.57;;;9.90;;
61015;SDS011;46902;52.920;6.536;2023-04-28T02:49:30;15.98;;;10.50;;
61015;SDS011;46902;52.920;6.536;2023-04-28T02:51:55;14.95;;;10.88;;
61015;SDS011;46902;52.920;6.536;2023-04-28T02:54:21;12.93;;;9.75;;
61015;SDS011;46902;52.920;6.536;2023-04-28T02:56:53;16.77;;;10.50;;
61015;SDS011;46902;52.920;6.536;2023-04-28T02:59:20;13.38;;;10.05;;
61015;SDS011;46902;52.920;6.536;2023-04-28T03:01:46;14.82;;;9.82;;
61015;SDS011;46902;52.920;6.536;2023-04-28T03:04:12;12.73;;;10.13;;
61015;SDS011;46902;52.920;6.536;2023-04-28T03:06:39;14.05;;;10.73;;
61015;SDS011;46902;52.920;6.536;2023-04-28T03:09:05;13.00;;;9.95;;
61015;SDS011;46902;52.920;6.536;2023-04-28T03:11:30;12.57;;;9.70;;
61015;SDS011;46902;52.920;6.536;2023-04-28T03:13:56;14.68;;;10.57;;
61015;SDS011;46902;52.920;6.536;2023-04-28T03:16:22;15.43;;;11.48;;
61015;SDS011;46902;52.920;6.536;2023-04-28T03:18:47;14.93;;;11.18;;
61015;SDS011;46902;52.920;6.536;2023-04-28T03:21:13;14.05;;;10.73;;
61015;SDS011;46902;52.920;6.536;2023-04-28T03:23:39;14.23;;;11.10;;
61015;SDS011;46902;52.920;6.536;2023-04-28T03:26:04;14.25;;;10.80;;
61015;SDS011;46902;52.920;6.536;2023-04-28T03:28:30;15.60;;;10.52;;
61015;SDS011;46902;52.920;6.536;2023-04-28T03:30:56;14.77;;;11.32;;
61015;SDS011;46902;52.920;6.536;2023-04-28T03:33:22;19.45;;;11.85;;
61015;SDS011;46902;52.920;6.536;2023-04-28T03:35:48;14.52;;;11.65;;
61015;SDS011;46902;52.920;6.536;2023-04-28T03:38:13;18.52;;;11.73;;
61015;SDS011;46902;52.920;6.536;2023-04-28T03:40:39;18.25;;;11.52;;
61015;SDS011;46902;52.920;6.536;2023-04-28T03:43:05;15.52;;;11.32;;
61015;SDS011;46902;52.920;6.536;2023-04-28T03:45:31;17.60;;;11.93;;
61015;SDS011;46902;52.920;6.536;2023-04-28T03:47:57;15.05;;;11.88;;
61015;SDS011;46902;52.920;6.536;2023-04-28T03:50:22;15.68;;;12.45;;
61015;SDS011;46902;52.920;6.536;2023-04-28T03:52:48;15.48;;;12.32;;
61015;SDS011;46902;52.920;6.536;2023-04-28T03:55:13;17.52;;;12.18;;
61015;SDS011;46902;52.920;6.536;2023-04-28T03:57:39;16.60;;;11.45;;
61015;SDS011;46902;52.920;6.536;2023-04-28T04:00:05;19.60;;;12.15;;
61015;SDS011;46902;52.920;6.536;2023-04-28T04:02:31;18.00;;;12.45;;
61015;SDS011;46902;52.920;6.536;2023-04-28T04:04:57;18.98;;;13.25;;
61015;SDS011;46902;52.920;6.536;2023-04-28T04:07:23;16.98;;;11.90;;
61015;SDS011;46902;52.920;6.536;2023-04-28T04:09:48;17.52;;;13.07;;
61015;SDS011;46902;52.920;6.536;2023-04-28T04:12:14;18.17;;;12.80;;
61015;SDS011;46902;52.920;6.536;2023-04-28T04:14:40;15.32;;;12.48;;
61015;SDS011;46902;52.920;6.536;2023-04-28T04:17:05;20.50;;;12.70;;
61015;SDS011;46902;52.920;6.536;2023-04-28T04:19:31;20.48;;;12.77;;
61015;SDS011;46902;52.920;6.536;2023-04-28T04:21:57;15.35;;;12.48;;
61015;SDS011;46902;52.920;6.536;2023-04-28T04:24:23;17.02;;;12.73;;
61015;SDS011;46902;52.920;6.536;2023-04-28T04:26:48;18.08;;;12.43;;
61015;SDS011;46902;52.920;6.536;2023-04-28T04:29:14;16.88;;;12.57;;
61015;SDS011;46902;52.920;6.536;2023-04-28T04:31:39;17.52;;;13.05;;
61015;SDS011;46902;52.920;6.536;2023-04-28T04:34:05;18.05;;;12.88;;
61015;SDS011;46902;52.920;6.536;2023-04-28T04:36:31;19.25;;;12.95;;
61015;SDS011;46902;52.920;6.536;2023-04-28T04:38:57;18.77;;;13.90;;
61015;SDS011;46902;52.920;6.536;2023-04-28T04:41:24;19.80;;;13.45;;
61015;SDS011;46902;52.920;6.536;2023-04-28T04:43:51;20.85;;;14.23;;
61015;SDS011;46902;52.920;6.536;2023-04-28T04:46:16;18.75;;;13.57;;
61015;SDS011;46902;52.920;6.536;2023-04-28T04:48:42;18.13;;;13.30;;
61015;SDS011;46902;52.920;6.536;2023-04-28T04:51:08;18.85;;;13.15;;
61015;SDS011;46902;52.920;6.536;2023-04-28T04:53:34;16.98;;;12.77;;
61015;SDS011;46902;52.920;6.536;2023-04-28T04:55:59;18.33;;;13.13;;
61015;SDS011;46902;52.920;6.536;2023-04-28T04:58:25;21.02;;;13.25;;
61015;SDS011;46902;52.920;6.536;2023-04-28T05:00:51;15.80;;;12.98;;
61015;SDS011;46902;52.920;6.536;2023-04-28T05:03:17;17.45;;;12.82;;
61015;SDS011;46902;52.920;6.536;2023-04-28T05:05:42;18.02;;;12.60;;
61015;SDS011;46902;52.920;6.536;2023-04-28T05:08:11;20.30;;;13.43;;
61015;SDS011;46902;52.920;6.536;2023-04-28T05:10:36;17.90;;;13.27;;
61015;SDS011;46902;52.920;6.536;2023-04-28T05:13:02;19.40;;;13.10;;
61015;SDS011;46902;52.920;6.536;2023-04-28T05:15:28;16.30;;;12.07;;
61015;SDS011;46902;52.920;6.536;2023-04-28T05:17:54;19.48;;;12.77;;
61015;SDS011;46902;52.920;6.536;2023-04-28T05:20:20;18.10;;;13.48;;
61015;SDS011;46902;52.920;6.536;2023-04-28T05:22:46;15.18;;;11.55;;
61015;SDS011;46902;52.920;6.536;2023-04-28T05:25:12;15.20;;;12.48;;
61015;SDS011;46902;52.920;6.536;2023-04-28T05:27:37;16.15;;;12.27;;
61015;SDS011;46902;52.920;6.536;2023-04-28T05:30:08;17.73;;;12.40;;
61015;SDS011;46902;52.920;6.536;2023-04-28T05:32:37;17.08;;;13.43;;
61015;SDS011;46902;52.920;6.536;2023-04-28T05:35:03;18.25;;;12.82;;
61015;SDS011;46902;52.920;6.536;2023-04-28T05:37:29;21.02;;;11.85;;
61015;SDS011;46902;52.920;6.536;2023-04-28T05:39:54;16.55;;;12.23;;
61015;SDS011;46902;52.920;6.536;2023-04-28T05:42:20;14.93;;;12.25;;
61015;SDS011;46902;52.920;6.536;2023-04-28T05:44:45;17.63;;;12.35;;
61015;SDS011;46902;52.920;6.536;2023-04-28T05:47:11;16.10;;;11.65;;
61015;SDS011;46902;52.920;6.536;2023-04-28T05:49:37;18.02;;;12.65;;
61015;SDS011;46902;52.920;6.536;2023-04-28T05:52:02;15.48;;;12.07;;
61015;SDS011;46902;52.920;6.536;2023-04-28T05:54:28;16.50;;;11.18;;
61015;SDS011;46902;52.920;6.536;2023-04-28T05:56:54;16.85;;;12.13;;
61015;SDS011;46902;52.920;6.536;2023-04-28T05:59:20;15.98;;;11.73;;
61015;SDS011;46902;52.920;6.536;2023-04-28T06:01:45;16.25;;;11.45;;
61015;SDS011;46902;52.920;6.536;2023-04-28T06:04:11;16.75;;;12.50;;
61015;SDS011;46902;52.920;6.536;2023-04-28T06:06:37;17.70;;;11.60;;
61015;SDS011;46902;52.920;6.536;2023-04-28T06:09:03;19.15;;;12.10;;
61015;SDS011;46902;52.920;6.536;2023-04-28T06:11:28;15.85;;;11.32;;
61015;SDS011;46902;52.920;6.536;2023-04-28T06:13:54;16.02;;;11.50;;
61015;SDS011;46902;52.920;6.536;2023-04-28T06:16:20;16.17;;;12.25;;
61015;SDS011;46902;52.920;6.536;2023-04-28T06:18:47;14.88;;;11.32;;
61015;SDS011;46902;52.920;6.536;2023-04-28T06:21:13;16.05;;;11.30;;
61015;SDS011;46902;52.920;6.536;2023-04-28T06:23:39;14.48;;;11.90;;
61015;SDS011;46902;52.920;6.536;2023-04-28T06:26:06;16.40;;;12.10;;
61015;SDS011;46902;52.920;6.536;2023-04-28T06:28:32;14.88;;;10.95;;
61015;SDS011;46902;52.920;6.536;2023-04-28T06:30:58;13.68;;;10.95;;
61015;SDS011;46902;52.920;6.536;2023-04-28T06:33:24;18.90;;;11.77;;
61015;SDS011;46902;52.920;6.536;2023-04-28T06:35:49;17.20;;;11.98;;
61015;SDS011;46902;52.920;6.536;2023-04-28T06:38:15;14.10;;;11.55;;
61015;SDS011;46902;52.920;6.536;2023-04-28T06:40:41;16.88;;;11.20;;
61015;SDS011;46902;52.920;6.536;2023-04-28T06:43:07;15.75;;;11.00;;
61015;SDS011;46902;52.920;6.536;2023-04-28T06:45:32;15.00;;;11.15;;
61015;SDS011;46902;52.920;6.536;2023-04-28T06:47:58;14.38;;;11.77;;
61015;SDS011;46902;52.920;6.536;2023-04-28T06:50:24;13.60;;;11.07;;
61015;SDS011;46902;52.920;6.536;2023-04-28T06:52:49;17.85;;;12.20;;
61015;SDS011;46902;52.920;6.536;2023-04-28T06:55:15;15.63;;;10.77;;
61015;SDS011;46902;52.920;6.536;2023-04-28T06:57:43;14.30;;;11.50;;
61015;SDS011;46902;52.920;6.536;2023-04-28T07:00:09;18.00;;;11.18;;
61015;SDS011;46902;52.920;6.536;2023-04-28T07:02:35;18.55;;;12.02;;
61015;SDS011;46902;52.920;6.536;2023-04-28T07:05:02;15.48;;;11.00;;
61015;SDS011;46902;52.920;6.536;2023-04-28T07:07:28;13.38;;;10.18;;
61015;SDS011;46902;52.920;6.536;2023-04-28T07:09:53;17.00;;;11.85;;
61015;SDS011;46902;52.920;6.536;2023-04-28T07:12:20;11.77;;;9.90;;
61015;SDS011;46902;52.920;6.536;2023-04-28T07:14:46;14.48;;;11.00;;
61015;SDS011;46902;52.920;6.536;2023-04-28T07:17:12;13.75;;;10.07;;
61015;SDS011;46902;52.920;6.536;2023-04-28T07:19:38;14.82;;;9.75;;
61015;SDS011;46902;52.920;6.536;2023-04-28T07:22:03;13.18;;;9.68;;
61015;SDS011;46902;52.920;6.536;2023-04-28T07:24:29;12.55;;;9.43;;
61015;SDS011;46902;52.920;6.536;2023-04-28T07:26:55;13.60;;;8.68;;
61015;SDS011;46902;52.920;6.536;2023-04-28T07:29:21;14.93;;;9.05;;
61015;SDS011;46902;52.920;6.536;2023-04-28T07:31:47;14.23;;;9.15;;
61015;SDS011;46902;52.920;6.536;2023-04-28T07:34:13;16.70;;;9.20;;
61015;SDS011;46902;52.920;6.536;2023-04-28T07:36:39;14.98;;;8.98;;
61015;SDS011;46902;52.920;6.536;2023-04-28T07:39:05;14.77;;;9.63;;
61015;SDS011;46902;52.920;6.536;2023-04-28T07:41:34;15.93;;;10.05;;
61015;SDS011;46902;52.920;6.536;2023-04-28T07:44:04;13.05;;;9.25;;
61015;SDS011;46902;52.920;6.536;2023-04-28T07:46:32;11.80;;;9.20;;
61015;SDS011;46902;52.920;6.536;2023-04-28T07:48:58;14.27;;;9.00;;
61015;SDS011;46902;52.920;6.536;2023-04-28T07:51:23;12.80;;;8.50;;
61015;SDS011;46902;52.920;6.536;2023-04-28T07:53:49;11.93;;;9.05;;
61015;SDS011;46902;52.920;6.536;2023-04-28T07:56:14;14.57;;;8.68;;
61015;SDS011;46902;52.920;6.536;2023-04-28T07:58:40;14.32;;;9.13;;
61015;SDS011;46902;52.920;6.536;2023-04-28T08:01:06;11.43;;;8.40;;
61015;SDS011;46902;52.920;6.536;2023-04-28T08:03:31;14.02;;;8.65;;
61015;SDS011;46902;52.920;6.536;2023-04-28T08:05:57;10.93;;;8.88;;
61015;SDS011;46902;52.920;6.536;2023-04-28T08:08:23;11.68;;;8.40;;
61015;SDS011;46902;52.920;6.536;2023-04-28T08:10:49;15.05;;;8.35;;
61015;SDS011;46902;52.920;6.536;2023-04-28T08:13:16;11.00;;;8.10;;
61015;SDS011;46902;52.920;6.536;2023-04-28T08:15:42;13.57;;;8.40;;
61015;SDS011;46902;52.920;6.536;2023-04-28T08:18:07;10.00;;;7.55;;
61015;SDS011;46902;52.920;6.536;2023-04-28T08:20:33;11.30;;;8.02;;
61015;SDS011;46902;52.920;6.536;2023-04-28T08:22:59;14.07;;;8.20;;
61015;SDS011;46902;52.920;6.536;2023-04-28T08:25:24;15.75;;;8.50;;
61015;SDS011;46902;52.920;6.536;2023-04-28T08:27:50;11.45;;;7.43;;
61015;SDS011;46902;52.920;6.536;2023-04-28T08:30:16;10.13;;;7.88;;
61015;SDS011;46902;52.920;6.536;2023-04-28T08:32:42;11.13;;;8.57;;
61015;SDS011;46902;52.920;6.536;2023-04-28T08:35:07;11.88;;;8.05;;
61015;SDS011;46902;52.920;6.536;2023-04-28T08:37:33;13.90;;;8.18;;
61015;SDS011;46902;52.920;6.536;2023-04-28T08:39:59;12.35;;;8.05;;
61015;SDS011;46902;52.920;6.536;2023-04-28T08:42:33;13.30;;;8.63;;
61015;SDS011;46902;52.920;6.536;2023-04-28T08:44:59;12.98;;;9.18;;
61015;SDS011;46902;52.920;6.536;2023-04-28T08:47:31;12.32;;;9.38;;
61015;SDS011;46902;52.920;6.536;2023-04-28T08:50:02;11.85;;;8.75;;
61015;SDS011;46902;52.920;6.536;2023-04-28T08:52:30;12.43;;;8.93;;
61015;SDS011;46902;52.920;6.536;2023-04-28T08:55:00;10.30;;;9.20;;
61015;SDS011;46902;52.920;6.536;2023-04-28T08:57:36;12.65;;;8.15;;
61015;SDS011;46902;52.920;6.536;2023-04-28T09:00:07;11.98;;;8.13;;
61015;SDS011;46902;52.920;6.536;2023-04-28T09:02:33;11.23;;;8.00;;
61015;SDS011;46902;52.920;6.536;2023-04-28T09:05:01;10.73;;;8.40;;
61015;SDS011;46902;52.920;6.536;2023-04-28T09:07:37;12.02;;;8.35;;
61015;SDS011;46902;52.920;6.536;2023-04-28T09:12:45;13.50;;;9.27;;
61015;SDS011;46902;52.920;6.536;2023-04-28T09:15:24;12.40;;;8.13;;
61015;SDS011;46902;52.920;6.536;2023-04-28T09:17:50;14.88;;;9.25;;
61015;SDS011;46902;52.920;6.536;2023-04-28T09:20:20;10.82;;;8.70;;
61015;SDS011;46902;52.920;6.536;2023-04-28T09:22:47;11.05;;;7.88;;
61015;SDS011;46902;52.920;6.536;2023-04-28T09:25:14;10.57;;;8.18;;
61015;SDS011;46902;52.920;6.536;2023-04-28T09:27:40;12.95;;;8.27;;
61015;SDS011;46902;52.920;6.536;2023-04-28T09:30:06;12.65;;;8.75;;
61015;SDS011;46902;52.920;6.536;2023-04-28T09:32:33;13.65;;;8.60;;
61015;SDS011;46902;52.920;6.536;2023-04-28T09:35:00;12.32;;;8.82;;
61015;SDS011;46902;52.920;6.536;2023-04-28T09:37:27;14.25;;;8.52;;
61015;SDS011;46902;52.920;6.536;2023-04-28T09:39:56;12.93;;;8.55;;
61015;SDS011;46902;52.920;6.536;2023-04-28T09:45:03;13.95;;;8.25;;
61015;SDS011;46902;52.920;6.536;2023-04-28T09:47:30;12.57;;;8.48;;
61015;SDS011;46902;52.920;6.536;2023-04-28T09:49:59;11.73;;;8.70;;
61015;SDS011;46902;52.920;6.536;2023-04-28T09:52:27;11.82;;;8.07;;
61015;SDS011;46902;52.920;6.536;2023-04-28T09:54:53;11.68;;;8.32;;
61015;SDS011;46902;52.920;6.536;2023-04-28T09:57:20;10.15;;;7.80;;
61015;SDS011;46902;52.920;6.536;2023-04-28T09:59:51;9.80;;;7.85;;
61015;SDS011;46902;52.920;6.536;2023-04-28T10:02:18;11.05;;;7.40;;
61015;SDS011;46902;52.920;6.536;2023-04-28T10:04:46;11.10;;;7.65;;
61015;SDS011;46902;52.920;6.536;2023-04-28T10:07:14;10.65;;;7.28;;
61015;SDS011;46902;52.920;6.536;2023-04-28T10:09:40;10.73;;;7.70;;
61015;SDS011;46902;52.920;6.536;2023-04-28T10:12:16;10.23;;;7.18;;
61015;SDS011;46902;52.920;6.536;2023-04-28T10:14:42;10.48;;;7.40;;
61015;SDS011;46902;52.920;6.536;2023-04-28T10:17:12;14.40;;;7.15;;
61015;SDS011;46902;52.920;6.536;2023-04-28T10:19:39;10.90;;;7.45;;
61015;SDS011;46902;52.920;6.536;2023-04-28T10:25:05;10.20;;;6.90;;
61015;SDS011;46902;52.920;6.536;2023-04-28T10:27:33;11.18;;;7.63;;
61015;SDS011;46902;52.920;6.536;2023-04-28T10:35:43;12.05;;;8.10;;
61015;SDS011;46902;52.920;6.536;2023-04-28T10:38:10;10.35;;;7.53;;
61015;SDS011;46902;52.920;6.536;2023-04-28T10:40:40;12.25;;;7.60;;
61015;SDS011;46902;52.920;6.536;2023-04-28T10:43:07;11.35;;;7.25;;
61015;SDS011;46902;52.920;6.536;2023-04-28T10:49:00;11.80;;;7.78;;
61015;SDS011;46902;52.920;6.536;2023-04-28T11:03:54;9.40;;;7.13;;
61015;SDS011;46902;52.920;6.536;2023-04-28T11:08:59;10.27;;;6.93;;
61015;SDS011;46902;52.920;6.536;2023-04-28T11:11:27;11.02;;;7.30;;
61015;SDS011;46902;52.920;6.536;2023-04-28T11:13:55;12.63;;;7.40;;
61015;SDS011;46902;52.920;6.536;2023-04-28T11:16:49;10.27;;;7.40;;
61015;SDS011;46902;52.920;6.536;2023-04-28T11:19:19;12.57;;;7.35;;
61015;SDS011;46902;52.920;6.536;2023-04-28T11:21:50;12.07;;;6.85;;
61015;SDS011;46902;52.920;6.536;2023-04-28T11:24:16;10.35;;;7.25;;
61015;SDS011;46902;52.920;6.536;2023-04-28T11:26:42;10.20;;;7.25;;
61015;SDS011;46902;52.920;6.536;2023-04-28T11:29:09;10.35;;;7.13;;
61015;SDS011;46902;52.920;6.536;2023-04-28T11:31:36;10.10;;;7.45;;
61015;SDS011;46902;52.920;6.536;2023-04-28T11:34:05;12.57;;;7.75;;
61015;SDS011;46902;52.920;6.536;2023-04-28T11:36:39;9.35;;;7.35;;
61015;SDS011;46902;52.920;6.536;2023-04-28T11:39:06;10.70;;;7.35;;
61015;SDS011;46902;52.920;6.536;2023-04-28T11:41:33;11.30;;;7.93;;
61015;SDS011;46902;52.920;6.536;2023-04-28T11:44:08;10.48;;;8.10;;
61015;SDS011;46902;52.920;6.536;2023-04-28T11:46:44;13.20;;;8.13;;
61015;SDS011;46902;52.920;6.536;2023-04-28T11:49:20;9.73;;;7.10;;
61015;SDS011;46902;52.920;6.536;2023-04-28T11:51:48;14.07;;;7.43;;
61015;SDS011;46902;52.920;6.536;2023-04-28T11:54:19;9.38;;;7.85;;
61015;SDS011;46902;52.920;6.536;2023-04-28T11:56:46;14.57;;;8.05;;
61015;SDS011;46902;52.920;6.536;2023-04-28T11:59:11;10.00;;;8.18;;
61015;SDS011;46902;52.920;6.536;2023-04-28T12:01:51;11.00;;;7.82;;
61015;SDS011;46902;52.920;6.536;2023-04-28T12:07:09;18.05;;;8.23;;
61015;SDS011;46902;52.920;6.536;2023-04-28T12:10:08;10.20;;;7.30;;
61015;SDS011;46902;52.920;6.536;2023-04-28T12:12:35;12.40;;;8.20;;
61015;SDS011;46902;52.920;6.536;2023-04-28T12:15:04;9.90;;;7.97;;
61015;SDS011;46902;52.920;6.536;2023-04-28T12:17:38;11.45;;;7.40;;
61015;SDS011;46902;52.920;6.536;2023-04-28T12:20:09;9.50;;;7.30;;
61015;SDS011;46902;52.920;6.536;2023-04-28T12:22:46;11.15;;;7.53;;
61015;SDS011;46902;52.920;6.536;2023-04-28T12:25:13;10.30;;;7.00;;
61015;SDS011;46902;52.920;6.536;2023-04-28T12:27:59;12.93;;;7.75;;
61015;SDS011;46902;52.920;6.536;2023-04-28T12:30:35;9.50;;;7.82;;
61015;SDS011;46902;52.920;6.536;2023-04-28T12:33:20;11.52;;;7.57;;
61015;SDS011;46902;52.920;6.536;2023-04-28T12:35:47;9.75;;;8.10;;
61015;SDS011;46902;52.920;6.536;2023-04-28T12:38:14;9.63;;;7.65;;
61015;SDS011;46902;52.920;6.536;2023-04-28T12:40:40;10.85;;;7.78;;
61015;SDS011;46902;52.920;6.536;2023-04-28T12:43:06;9.32;;;7.97;;
61015;SDS011;46902;52.920;6.536;2023-04-28T12:45:32;11.05;;;8.57;;
61015;SDS011;46902;52.920;6.536;2023-04-28T12:47:58;10.80;;;8.15;;
61015;SDS011;46902;52.920;6.536;2023-04-28T12:50:24;11.10;;;8.45;;
61015;SDS011;46902;52.920;6.536;2023-04-28T12:52:51;17.77;;;9.10;;
61015;SDS011;46902;52.920;6.536;2023-04-28T12:55:16;12.60;;;8.95;;
61015;SDS011;46902;52.920;6.536;2023-04-28T12:57:42;9.35;;;8.35;;
61015;SDS011;46902;52.920;6.536;2023-04-28T13:00:08;14.77;;;8.75;;
61015;SDS011;46902;52.920;6.536;2023-04-28T13:02:34;11.70;;;9.40;;
61015;SDS011;46902;52.920;6.536;2023-04-28T13:05:00;11.75;;;9.98;;
61015;SDS011;46902;52.920;6.536;2023-04-28T13:07:26;13.30;;;10.73;;
61015;SDS011;46902;52.920;6.536;2023-04-28T13:09:51;13.68;;;10.95;;
61015;SDS011;46902;52.920;6.536;2023-04-28T13:12:19;12.63;;;11.15;;
61015;SDS011;46902;52.920;6.536;2023-04-28T13:14:44;13.30;;;11.85;;
61015;SDS011;46902;52.920;6.536;2023-04-28T13:17:11;14.93;;;12.20;;
61015;SDS011;46902;52.920;6.536;2023-04-28T13:19:36;18.00;;;14.07;;
61015;SDS011;46902;52.920;6.536;2023-04-28T13:22:03;17.77;;;14.52;;
61015;SDS011;46902;52.920;6.536;2023-04-28T13:24:30;18.13;;;15.38;;
61015;SDS011;46902;52.920;6.536;2023-04-28T13:26:57;20.42;;;17.27;;
61015;SDS011;46902;52.920;6.536;2023-04-28T13:29:23;22.10;;;19.15;;
61015;SDS011;46902;52.920;6.536;2023-04-28T13:31:48;21.90;;;19.35;;
61015;SDS011;46902;52.920;6.536;2023-04-28T13:34:14;22.35;;;19.48;;
61015;SDS011;46902;52.920;6.536;2023-04-28T13:36:42;25.65;;;22.88;;
61015;SDS011;46902;52.920;6.536;2023-04-28T13:39:08;25.25;;;22.55;;
61015;SDS011;46902;52.920;6.536;2023-04-28T13:41:40;25.85;;;22.95;;
61015;SDS011;46902;52.920;6.536;2023-04-28T13:44:08;25.27;;;22.40;;
61015;SDS011;46902;52.920;6.536;2023-04-28T13:46:34;29.88;;;25.92;;
61015;SDS011;46902;52.920;6.536;2023-04-28T13:49:00;27.65;;;24.70;;
61015;SDS011;46902;52.920;6.536;2023-04-28T13:51:26;30.95;;;27.63;;
61015;SDS011;46902;52.920;6.536;2023-04-28T13:53:52;28.52;;;25.73;;
61015;SDS011;46902;52.920;6.536;2023-04-28T13:56:18;31.70;;;27.75;;
61015;SDS011;46902;52.920;6.536;2023-04-28T13:58:45;30.08;;;26.67;;
61015;SDS011;46902;52.920;6.536;2023-04-28T14:01:10;31.33;;;28.05;;
61015;SDS011;46902;52.920;6.536;2023-04-28T14:03:36;30.63;;;27.42;;
61015;SDS011;46902;52.920;6.536;2023-04-28T14:06:02;31.25;;;26.77;;
61015;SDS011;46902;52.920;6.536;2023-04-28T14:08:28;29.67;;;26.77;;
61015;SDS011;46902;52.920;6.536;2023-04-28T14:10:54;31.67;;;28.42;;
61015;SDS011;46902;52.920;6.536;2023-04-28T14:13:19;31.27;;;28.08;;
61015;SDS011;46902;52.920;6.536;2023-04-28T14:15:45;31.70;;;28.50;;
61015;SDS011;46902;52.920;6.536;2023-04-28T14:18:11;32.63;;;29.15;;
61015;SDS011;46902;52.920;6.536;2023-04-28T14:20:37;35.47;;;31.70;;
61015;SDS011;46902;52.920;6.536;2023-04-28T14:23:03;34.45;;;31.05;;
61015;SDS011;46902;52.920;6.536;2023-04-28T14:25:29;35.80;;;31.95;;
61015;SDS011;46902;52.920;6.536;2023-04-28T14:27:54;32.67;;;29.38;;
61015;SDS011;46902;52.920;6.536;2023-04-28T14:30:20;34.08;;;30.30;;
61015;SDS011;46902;52.920;6.536;2023-04-28T14:32:47;34.75;;;31.13;;
61015;SDS011;46902;52.920;6.536;2023-04-28T14:35:13;36.65;;;32.95;;
61015;SDS011;46902;52.920;6.536;2023-04-28T14:37:40;33.65;;;30.10;;
61015;SDS011;46902;52.920;6.536;2023-04-28T14:40:06;36.45;;;32.63;;
61015;SDS011;46902;52.920;6.536;2023-04-28T14:42:32;36.70;;;33.08;;
61015;SDS011;46902;52.920;6.536;2023-04-28T14:45:04;36.42;;;32.67;;
61015;SDS011;46902;52.920;6.536;2023-04-28T14:47:31;35.85;;;32.22;;
61015;SDS011;46902;52.920;6.536;2023-04-28T14:49:57;37.20;;;33.40;;
61015;SDS011;46902;52.920;6.536;2023-04-28T14:52:23;36.63;;;33.03;;
61015;SDS011;46902;52.920;6.536;2023-04-28T14:54:52;37.25;;;33.55;;
61015;SDS011;46902;52.920;6.536;2023-04-28T14:57:18;39.95;;;35.78;;
61015;SDS011;46902;52.920;6.536;2023-04-28T14:59:44;40.75;;;36.47;;
61015;SDS011;46902;52.920;6.536;2023-04-28T15:02:10;41.95;;;37.38;;